sensor_id;sensor_type;location;lat;lon;timestamp;pressure;altitude;pressure_sealevel;temperature;humidity
74678;BME280;67324;56.326;43.982;2023-05-27T00:00:57;100385.41;;;22.70;50.09
74678;BME280;67324;56.326;43.982;2023-05-27T00:03:23;100380.94;;;22.70;50.29
74678;BME280;67324;56.326;43.982;2023-05-27T00:05:48;100379.31;;;22.69;50.16
74678;BME280;67324;56.326;43.982;2023-05-27T00:08:14;100373.38;;;22.67;49.96
74678;BME280;67324;56.326;43.982;2023-05-27T00:10:40;100374.03;;;22.69;50.05
74678;BME280;67324;56.326;43.982;2023-05-27T00:13:05;100367.94;;;22.69;50.08
74678;BME280;67324;56.326;43.982;2023-05-27T00:15:31;100366.13;;;22.69;50.01
74678;BME280;67324;56.326;43.982;2023-05-27T00:18:00;100360.03;;;22.69;50.26
74678;BME280;67324;56.326;43.982;2023-05-27T00:20:27;100362.81;;;22.67;50.19
74678;BME280;67324;56.326;43.982;2023-05-27T00:22:55;100369.75;;;22.68;50.25
74678;BME280;67324;56.326;43.982;2023-05-27T00:25:22;100372.41;;;22.68;49.79
74678;BME280;67324;56.326;43.982;2023-05-27T00:27:48;100376.00;;;22.67;49.92
74678;BME280;67324;56.326;43.982;2023-05-27T00:30:14;100370.72;;;22.67;50.18
74678;BME280;67324;56.326;43.982;2023-05-27T00:32:39;100365.47;;;22.67;50.19
74678;BME280;67324;56.326;43.982;2023-05-27T00:35:05;100369.09;;;22.66;50.16
74678;BME280;67324;56.326;43.982;2023-05-27T00:37:31;100371.72;;;22.66;50.08
74678;BME280;67324;56.326;43.982;2023-05-27T00:39:57;100362.16;;;22.65;50.33
74678;BME280;67324;56.326;43.982;2023-05-27T00:42:22;100354.25;;;22.65;50.21
74678;BME280;67324;56.326;43.982;2023-05-27T00:44:48;100356.88;;;22.65;50.08
74678;BME280;67324;56.326;43.982;2023-05-27T00:47:14;100346.34;;;22.65;50.14
74678;BME280;67324;56.326;43.982;2023-05-27T00:49:41;100350.78;;;22.65;50.13
74678;BME280;67324;56.326;43.982;2023-05-27T00:52:07;100347.34;;;22.64;49.94
74678;BME280;67324;56.326;43.982;2023-05-27T00:54:33;100352.63;;;22.64;50.30
74678;BME280;67324;56.326;43.982;2023-05-27T00:56:59;100342.22;;;22.63;50.29
74678;BME280;67324;56.326;43.982;2023-05-27T00:59:26;100342.06;;;22.64;50.21
74678;BME280;67324;56.326;43.982;2023-05-27T01:01:52;100345.69;;;22.63;50.06
74678;BME280;67324;56.326;43.982;2023-05-27T01:04:18;100343.03;;;22.63;50.26
74678;BME280;67324;56.326;43.982;2023-05-27T01:09:34;100352.78;;;22.63;50.06
74678;BME280;67324;56.326;43.982;2023-05-27T01:12:08;100347.50;;;22.63;50.12
74678;BME280;67324;56.326;43.982;2023-05-27T01:14:36;100342.41;;;22.61;50.16
74678;BME280;67324;56.326;43.982;2023-05-27T01:17:04;100339.78;;;22.61;50.07
74678;BME280;67324;56.326;43.982;2023-05-27T01:19:35;100338.91;;;22.61;50.04
74678;BME280;67324;56.326;43.982;2023-05-27T01:22:02;100332.84;;;22.60;50.34
74678;BME280;67324;56.326;43.982;2023-05-27T01:24:28;100337.13;;;22.61;50.13
74678;BME280;67324;56.326;43.982;2023-05-27T01:26:54;100352.94;;;22.61;50.08
74678;BME280;67324;56.326;43.982;2023-05-27T01:29:21;100347.69;;;22.61;50.17
74678;BME280;67324;56.326;43.982;2023-05-27T01:32:01;100347.84;;;22.60;50.18
74678;BME280;67324;56.326;43.982;2023-05-27T01:35:20;100340.75;;;22.60;50.14
74678;BME280;67324;56.326;43.982;2023-05-27T01:37:21;100346.19;;;22.58;49.91
74678;BME280;67324;56.326;43.982;2023-05-27T01:39:49;100349.47;;;22.61;50.21
74678;BME280;67324;56.326;43.982;2023-05-27T01:42:16;100344.38;;;22.59;50.23
74678;BME280;67324;56.326;43.982;2023-05-27T01:44:45;100339.09;;;22.59;50.10
74678;BME280;67324;56.326;43.982;2023-05-27T01:47:11;100340.94;;;22.58;50.30
74678;BME280;67324;56.326;43.982;2023-05-27T01:49:36;100345.19;;;22.60;50.41
74678;BME280;67324;56.326;43.982;2023-05-27T01:52:02;100344.53;;;22.57;50.24
74678;BME280;67324;56.326;43.982;2023-05-27T01:54:28;100346.19;;;22.58;50.27
74678;BME280;67324;56.326;43.982;2023-05-27T01:56:53;100342.72;;;22.58;50.17
74678;BME280;67324;56.326;43.982;2023-05-27T01:59:19;100344.53;;;22.57;50.03
74678;BME280;67324;56.326;43.982;2023-05-27T02:01:45;100335.81;;;22.57;50.18
74678;BME280;67324;56.326;43.982;2023-05-27T02:04:11;100340.28;;;22.56;50.08
74678;BME280;67324;56.326;43.982;2023-05-27T02:06:37;100348.19;;;22.56;50.06
74678;BME280;67324;56.326;43.982;2023-05-27T02:09:02;100348.19;;;22.56;50.32
74678;BME280;67324;56.326;43.982;2023-05-27T02:11:29;100350.00;;;22.56;50.21
74678;BME280;67324;56.326;43.982;2023-05-27T02:13:54;100347.34;;;22.56;50.08
74678;BME280;67324;56.326;43.982;2023-05-27T02:16:21;100353.44;;;22.56;50.32
74678;BME280;67324;56.326;43.982;2023-05-27T02:18:48;100344.72;;;22.56;50.17
74678;BME280;67324;56.326;43.982;2023-05-27T02:21:16;100345.69;;;22.55;50.27
74678;BME280;67324;56.326;43.982;2023-05-27T02:23:44;100348.31;;;22.55;50.25
74678;BME280;67324;56.326;43.982;2023-05-27T02:26:09;100346.50;;;22.55;50.15
74678;BME280;67324;56.326;43.982;2023-05-27T02:28:35;100339.59;;;22.54;50.11
74678;BME280;67324;56.326;43.982;2023-05-27T02:31:00;100344.06;;;22.54;50.16
74678;BME280;67324;56.326;43.982;2023-05-27T02:33:26;100332.69;;;22.53;50.19
74678;BME280;67324;56.326;43.982;2023-05-27T02:35:52;100337.97;;;22.53;50.12
74678;BME280;67324;56.326;43.982;2023-05-27T02:38:17;100334.50;;;22.53;50.24
74678;BME280;67324;56.326;43.982;2023-05-27T02:40:43;100340.59;;;22.53;50.17
74678;BME280;67324;56.326;43.982;2023-05-27T02:43:09;100326.56;;;22.53;50.20
74678;BME280;67324;56.326;43.982;2023-05-27T02:45:34;100325.75;;;22.52;50.17
74678;BME280;67324;56.326;43.982;2023-05-27T02:48:00;100320.50;;;22.52;50.38
74678;BME280;67324;56.326;43.982;2023-05-27T02:50:28;100323.31;;;22.51;50.21
74678;BME280;67324;56.326;43.982;2023-05-27T02:52:55;100326.75;;;22.51;50.08
74678;BME280;67324;56.326;43.982;2023-05-27T02:55:20;100325.94;;;22.51;50.29
74678;BME280;67324;56.326;43.982;2023-05-27T02:57:46;100321.50;;;22.51;50.09
74678;BME280;67324;56.326;43.982;2023-05-27T03:00:12;100318.03;;;22.51;50.29
74678;BME280;67324;56.326;43.982;2023-05-27T03:02:39;100320.69;;;22.51;50.13
74678;BME280;67324;56.326;43.982;2023-05-27T03:05:05;100327.72;;;22.50;50.25
74678;BME280;67324;56.326;43.982;2023-05-27T03:07:31;100321.66;;;22.50;50.11
74678;BME280;67324;56.326;43.982;2023-05-27T03:09:57;100328.59;;;22.51;50.07
74678;BME280;67324;56.326;43.982;2023-05-27T03:12:23;100329.56;;;22.50;50.08
74678;BME280;67324;56.326;43.982;2023-05-27T03:14:49;100330.56;;;22.49;50.19
74678;BME280;67324;56.326;43.982;2023-05-27T03:17:15;100333.00;;;22.50;50.22
74678;BME280;67324;56.326;43.982;2023-05-27T03:19:40;100329.56;;;22.50;50.13
74678;BME280;67324;56.326;43.982;2023-05-27T03:22:07;100322.66;;;22.49;50.20
74678;BME280;67324;56.326;43.982;2023-05-27T03:24:35;100335.81;;;22.49;50.27
74678;BME280;67324;56.326;43.982;2023-05-27T03:27:20;100338.47;;;22.49;50.09
74678;BME280;67324;56.326;43.982;2023-05-27T03:29:47;100338.47;;;22.49;50.37
74678;BME280;67324;56.326;43.982;2023-05-27T03:32:13;100334.16;;;22.48;50.31
74678;BME280;67324;56.326;43.982;2023-05-27T03:34:40;100340.25;;;22.48;50.25
74678;BME280;67324;56.326;43.982;2023-05-27T03:37:06;100333.34;;;22.47;50.16
74678;BME280;67324;56.326;43.982;2023-05-27T03:39:57;100334.16;;;22.48;50.12
74678;BME280;67324;56.326;43.982;2023-05-27T03:42:23;100328.91;;;22.48;50.17
74678;BME280;67324;56.326;43.982;2023-05-27T03:44:49;100328.06;;;22.47;50.23
74678;BME280;67324;56.326;43.982;2023-05-27T03:47:16;100311.44;;;22.47;50.25
74678;BME280;67324;56.326;43.982;2023-05-27T03:49:45;100323.81;;;22.46;50.20
74678;BME280;67324;56.326;43.982;2023-05-27T03:52:11;100316.88;;;22.45;50.21
74678;BME280;67324;56.326;43.982;2023-05-27T03:54:37;100324.63;;;22.47;50.32
74678;BME280;67324;56.326;43.982;2023-05-27T03:57:02;100326.44;;;22.46;50.03
74678;BME280;67324;56.326;43.982;2023-05-27T03:59:28;100331.72;;;22.46;50.18
74678;BME280;67324;56.326;43.982;2023-05-27T04:01:54;100319.50;;;22.45;50.17
74678;BME280;67324;56.326;43.982;2023-05-27T04:04:19;100326.59;;;22.45;50.06
74678;BME280;67324;56.326;43.982;2023-05-27T04:06:45;100316.88;;;22.45;50.11
74678;BME280;67324;56.326;43.982;2023-05-27T04:09:10;100323.16;;;22.44;50.23
74678;BME280;67324;56.326;43.982;2023-05-27T04:11:37;100320.50;;;22.44;50.17
74678;BME280;67324;56.326;43.982;2023-05-27T04:14:03;100316.06;;;22.45;50.12
74678;BME280;67324;56.326;43.982;2023-05-27T04:16:32;100311.78;;;22.44;50.16
74678;BME280;67324;56.326;43.982;2023-05-27T04:18:59;100311.78;;;22.44;50.14
74678;BME280;67324;56.326;43.982;2023-05-27T04:21:25;100314.22;;;22.45;50.17
74678;BME280;67324;56.326;43.982;2023-05-27T04:23:52;100303.03;;;22.43;50.03
74678;BME280;67324;56.326;43.982;2023-05-27T04:26:18;100303.03;;;22.43;50.11
74678;BME280;67324;56.326;43.982;2023-05-27T04:28:49;100300.56;;;22.42;50.19
74678;BME280;67324;56.326;43.982;2023-05-27T04:31:15;100301.41;;;22.42;50.08
74678;BME280;67324;56.326;43.982;2023-05-27T04:33:44;100310.13;;;22.43;50.25
74678;BME280;67324;56.326;43.982;2023-05-27T04:36:11;100318.84;;;22.43;50.20
74678;BME280;67324;56.326;43.982;2023-05-27T04:38:52;100310.13;;;22.43;50.25
74678;BME280;67324;56.326;43.982;2023-05-27T04:41:19;100313.56;;;22.43;50.24
74678;BME280;67324;56.326;43.982;2023-05-27T04:43:59;100309.31;;;22.42;50.24
74678;BME280;67324;56.326;43.982;2023-05-27T04:46:31;100309.31;;;22.42;50.15
74678;BME280;67324;56.326;43.982;2023-05-27T04:48:58;100307.66;;;22.41;50.15
74678;BME280;67324;56.326;43.982;2023-05-27T04:51:23;100308.47;;;22.42;50.09
74678;BME280;67324;56.326;43.982;2023-05-27T04:53:49;100310.31;;;22.41;50.30
74678;BME280;67324;56.326;43.982;2023-05-27T04:56:17;100319.03;;;22.42;50.09
74678;BME280;67324;56.326;43.982;2023-05-27T04:58:44;100320.00;;;22.41;50.18
74678;BME280;67324;56.326;43.982;2023-05-27T05:01:13;100317.38;;;22.41;50.07
74678;BME280;67324;56.326;43.982;2023-05-27T05:03:54;100313.91;;;22.40;50.05
74678;BME280;67324;56.326;43.982;2023-05-27T05:06:57;100316.53;;;22.40;50.24
74678;BME280;67324;56.326;43.982;2023-05-27T05:09:24;100314.72;;;22.41;50.31
74678;BME280;67324;56.326;43.982;2023-05-27T05:11:50;100307.66;;;22.41;50.21
74678;BME280;67324;56.326;43.982;2023-05-27T05:14:34;100321.81;;;22.40;50.21
74678;BME280;67324;56.326;43.982;2023-05-27T05:17:02;100320.19;;;22.39;50.09
74678;BME280;67324;56.326;43.982;2023-05-27T05:19:27;100320.19;;;22.39;50.12
74678;BME280;67324;56.326;43.982;2023-05-27T05:21:54;100321.00;;;22.40;50.11
74678;BME280;67324;56.326;43.982;2023-05-27T05:24:20;100320.19;;;22.39;50.01
74678;BME280;67324;56.326;43.982;2023-05-27T05:26:46;100326.28;;;22.40;50.15
74678;BME280;67324;56.326;43.982;2023-05-27T05:29:11;100322.00;;;22.39;50.09
74678;BME280;67324;56.326;43.982;2023-05-27T05:31:37;100325.44;;;22.39;50.13
74678;BME280;67324;56.326;43.982;2023-05-27T05:34:03;100325.59;;;22.38;50.03
74678;BME280;67324;56.326;43.982;2023-05-27T05:36:32;100324.63;;;22.39;50.08
74678;BME280;67324;56.326;43.982;2023-05-27T05:39:01;100325.44;;;22.39;50.01
74678;BME280;67324;56.326;43.982;2023-05-27T05:41:28;100322.81;;;22.39;50.21
74678;BME280;67324;56.326;43.982;2023-05-27T05:43:54;100321.16;;;22.38;50.02
74678;BME280;67324;56.326;43.982;2023-05-27T05:46:21;100317.69;;;22.38;50.07
74678;BME280;67324;56.326;43.982;2023-05-27T05:48:46;100312.44;;;22.38;50.03
74678;BME280;67324;56.326;43.982;2023-05-27T05:51:17;100309.78;;;22.38;50.24
74678;BME280;67324;56.326;43.982;2023-05-27T05:53:47;100304.53;;;22.38;50.24
74678;BME280;67324;56.326;43.982;2023-05-27T05:56:13;100303.72;;;22.37;50.12
74678;BME280;67324;56.326;43.982;2023-05-27T05:58:38;100310.81;;;22.36;49.99
74678;BME280;67324;56.326;43.982;2023-05-27T06:01:05;100311.63;;;22.37;50.25
74678;BME280;67324;56.326;43.982;2023-05-27T06:03:35;100308.97;;;22.37;50.00
74678;BME280;67324;56.326;43.982;2023-05-27T06:06:03;100302.06;;;22.36;50.12
74678;BME280;67324;56.326;43.982;2023-05-27T06:08:30;100295.97;;;22.35;50.18
74678;BME280;67324;56.326;43.982;2023-05-27T06:11:02;100296.81;;;22.36;50.30
74678;BME280;67324;56.326;43.982;2023-05-27T06:13:31;100296.81;;;22.36;50.22
74678;BME280;67324;56.326;43.982;2023-05-27T06:15:58;100301.22;;;22.35;49.96
74678;BME280;67324;56.326;43.982;2023-05-27T06:18:24;100299.44;;;22.36;50.23
74678;BME280;67324;56.326;43.982;2023-05-27T06:20:50;100297.78;;;22.35;50.04
74678;BME280;67324;56.326;43.982;2023-05-27T06:23:16;100298.59;;;22.35;50.24
74678;BME280;67324;56.326;43.982;2023-05-27T06:25:51;100301.22;;;22.35;50.02
74678;BME280;67324;56.326;43.982;2023-05-27T06:28:17;100295.97;;;22.35;50.20
74678;BME280;67324;56.326;43.982;2023-05-27T06:30:43;100300.41;;;22.35;50.20
74678;BME280;67324;56.326;43.982;2023-05-27T06:33:10;100300.41;;;22.35;50.12
74678;BME280;67324;56.326;43.982;2023-05-27T06:35:36;100297.78;;;22.35;50.11
74678;BME280;67324;56.326;43.982;2023-05-27T06:38:03;100301.22;;;22.35;50.24
74678;BME280;67324;56.326;43.982;2023-05-27T06:40:28;100309.13;;;22.35;50.23
74678;BME280;67324;56.326;43.982;2023-05-27T06:42:54;100299.59;;;22.34;50.23
74678;BME280;67324;56.326;43.982;2023-05-27T06:45:39;100306.69;;;22.34;49.96
74678;BME280;67324;56.326;43.982;2023-05-27T06:48:22;100300.41;;;22.35;50.21
74678;BME280;67324;56.326;43.982;2023-05-27T06:50:48;100307.34;;;22.36;50.14
74678;BME280;67324;56.326;43.982;2023-05-27T06:53:14;100307.50;;;22.34;50.08
74678;BME280;67324;56.326;43.982;2023-05-27T06:55:58;100303.22;;;22.33;50.02
74678;BME280;67324;56.326;43.982;2023-05-27T06:58:44;100307.50;;;22.34;50.17
74678;BME280;67324;56.326;43.982;2023-05-27T07:01:13;100308.50;;;22.33;50.06
74678;BME280;67324;56.326;43.982;2023-05-27T07:03:57;100311.13;;;22.33;50.17
74678;BME280;67324;56.326;43.982;2023-05-27T07:06:49;100307.66;;;22.33;50.20
74678;BME280;67324;56.326;43.982;2023-05-27T07:09:33;100311.13;;;22.33;50.21
74678;BME280;67324;56.326;43.982;2023-05-27T07:12:00;100305.88;;;22.33;50.17
74678;BME280;67324;56.326;43.982;2023-05-27T07:14:43;100308.50;;;22.33;50.12
74678;BME280;67324;56.326;43.982;2023-05-27T07:17:10;100304.03;;;22.34;50.17
74678;BME280;67324;56.326;43.982;2023-05-27T07:19:36;100307.66;;;22.33;50.07
74678;BME280;67324;56.326;43.982;2023-05-27T07:22:05;100304.19;;;22.32;50.02
74678;BME280;67324;56.326;43.982;2023-05-27T07:24:31;100307.66;;;22.33;50.15
74678;BME280;67324;56.326;43.982;2023-05-27T07:26:57;100304.19;;;22.32;50.22
74678;BME280;67324;56.326;43.982;2023-05-27T07:29:25;100309.47;;;22.32;50.16
74678;BME280;67324;56.326;43.982;2023-05-27T07:31:50;100311.13;;;22.33;50.19
74678;BME280;67324;56.326;43.982;2023-05-27T07:34:18;100306.03;;;22.32;50.16
74678;BME280;67324;56.326;43.982;2023-05-27T07:36:44;100311.28;;;22.32;50.03
74678;BME280;67324;56.326;43.982;2023-05-27T07:39:09;100320.00;;;22.32;50.05
74678;BME280;67324;56.326;43.982;2023-05-27T07:41:35;100320.00;;;22.32;50.08
74678;BME280;67324;56.326;43.982;2023-05-27T07:44:02;100318.38;;;22.31;50.19
74678;BME280;67324;56.326;43.982;2023-05-27T07:46:29;100320.00;;;22.32;50.03
74678;BME280;67324;56.326;43.982;2023-05-27T07:48:55;100318.38;;;22.31;50.19
74678;BME280;67324;56.326;43.982;2023-05-27T07:51:22;100321.81;;;22.32;50.04
74678;BME280;67324;56.326;43.982;2023-05-27T07:53:48;100323.66;;;22.31;50.05
74678;BME280;67324;56.326;43.982;2023-05-27T07:56:14;100329.72;;;22.32;50.03
74678;BME280;67324;56.326;43.982;2023-05-27T07:58:40;100327.91;;;22.32;50.17
74678;BME280;67324;56.326;43.982;2023-05-27T08:01:11;100330.72;;;22.31;50.13
74678;BME280;67324;56.326;43.982;2023-05-27T08:03:38;100327.91;;;22.32;50.17
74678;BME280;67324;56.326;43.982;2023-05-27T08:06:16;100335.00;;;22.32;50.14
74678;BME280;67324;56.326;43.982;2023-05-27T08:09:21;100328.06;;;22.31;50.15
74678;BME280;67324;56.326;43.982;2023-05-27T08:12:13;100330.72;;;22.31;50.04
74678;BME280;67324;56.326;43.982;2023-05-27T08:14:41;100319.34;;;22.30;50.01
74678;BME280;67324;56.326;43.982;2023-05-27T08:17:31;100320.16;;;22.31;50.06
74678;BME280;67324;56.326;43.982;2023-05-27T08:20:15;100321.00;;;22.31;50.13
74678;BME280;67324;56.326;43.982;2023-05-27T08:22:46;100315.91;;;22.30;49.99
74678;BME280;67324;56.326;43.982;2023-05-27T08:25:31;100319.34;;;22.30;49.99
74678;BME280;67324;56.326;43.982;2023-05-27T08:28:06;100319.34;;;22.30;49.98
74678;BME280;67324;56.326;43.982;2023-05-27T08:30:52;100308.81;;;22.30;49.96
74678;BME280;67324;56.326;43.982;2023-05-27T08:33:21;100305.19;;;22.31;50.14
74678;BME280;67324;56.326;43.982;2023-05-27T08:35:47;100307.84;;;22.31;50.10
74678;BME280;67324;56.326;43.982;2023-05-27T08:38:13;100307.84;;;22.31;50.07
74678;BME280;67324;56.326;43.982;2023-05-27T08:40:40;100307.00;;;22.31;50.03
74678;BME280;67324;56.326;43.982;2023-05-27T08:43:06;100301.72;;;22.31;50.16
74678;BME280;67324;56.326;43.982;2023-05-27T08:45:36;100310.47;;;22.31;50.06
74678;BME280;67324;56.326;43.982;2023-05-27T08:48:02;100312.25;;;22.31;49.98
74678;BME280;67324;56.326;43.982;2023-05-27T08:50:33;100310.47;;;22.31;50.10
74678;BME280;67324;56.326;43.982;2023-05-27T08:53:00;100309.63;;;22.31;49.92
74678;BME280;67324;56.326;43.982;2023-05-27T08:55:27;100306.19;;;22.30;50.11
74678;BME280;67324;56.326;43.982;2023-05-27T08:57:54;100306.19;;;22.30;49.86
74678;BME280;67324;56.326;43.982;2023-05-27T09:00:21;100302.56;;;22.31;50.04
74678;BME280;67324;56.326;43.982;2023-05-27T09:02:48;100301.72;;;22.31;49.96
74678;BME280;67324;56.326;43.982;2023-05-27T09:05:15;100291.19;;;22.31;50.04
74678;BME280;67324;56.326;43.982;2023-05-27T09:07:41;100304.34;;;22.31;49.99
74678;BME280;67324;56.326;43.982;2023-05-27T09:10:07;100301.72;;;22.31;50.01
74678;BME280;67324;56.326;43.982;2023-05-27T09:12:33;100302.56;;;22.31;49.90
74678;BME280;67324;56.326;43.982;2023-05-27T09:14:59;100297.28;;;22.31;50.06
74678;BME280;67324;56.326;43.982;2023-05-27T09:17:24;100299.09;;;22.31;50.14
74678;BME280;67324;56.326;43.982;2023-05-27T09:19:50;100296.28;;;22.32;50.14
74678;BME280;67324;56.326;43.982;2023-05-27T09:22:23;100292.84;;;22.32;50.09
74678;BME280;67324;56.326;43.982;2023-05-27T09:24:51;100286.75;;;22.31;49.92
74678;BME280;67324;56.326;43.982;2023-05-27T09:27:18;100292.03;;;22.31;50.09
74678;BME280;67324;56.326;43.982;2023-05-27T09:29:44;100293.66;;;22.32;49.96
74678;BME280;67324;56.326;43.982;2023-05-27T09:32:30;100285.75;;;22.32;49.98
74678;BME280;67324;56.326;43.982;2023-05-27T09:34:56;100291.03;;;22.32;50.00
74678;BME280;67324;56.326;43.982;2023-05-27T09:37:26;100288.38;;;22.32;49.89
74678;BME280;67324;56.326;43.982;2023-05-27T09:39:57;100284.94;;;22.32;50.05
74678;BME280;67324;56.326;43.982;2023-05-27T09:42:23;100279.66;;;22.32;49.92
74678;BME280;67324;56.326;43.982;2023-05-27T09:44:48;100284.94;;;22.32;50.07
74678;BME280;67324;56.326;43.982;2023-05-27T09:47:16;100279.50;;;22.33;50.06
74678;BME280;67324;56.326;43.982;2023-05-27T09:49:42;100272.59;;;22.32;49.92
74678;BME280;67324;56.326;43.982;2023-05-27T09:52:09;100268.13;;;22.33;49.98
74678;BME280;67324;56.326;43.982;2023-05-27T09:54:36;100267.47;;;22.31;49.77
74678;BME280;67324;56.326;43.982;2023-05-27T09:57:03;100272.59;;;22.32;49.98
74678;BME280;67324;56.326;43.982;2023-05-27T09:59:29;100257.59;;;22.33;49.96
74678;BME280;67324;56.326;43.982;2023-05-27T10:01:54;100261.06;;;22.33;49.97
74678;BME280;67324;56.326;43.982;2023-05-27T10:04:21;100270.75;;;22.33;50.03
74678;BME280;67324;56.326;43.982;2023-05-27T10:06:47;100270.75;;;22.33;49.83
74678;BME280;67324;56.326;43.982;2023-05-27T10:09:13;100268.97;;;22.33;49.92
74678;BME280;67324;56.326;43.982;2023-05-27T10:11:41;100266.34;;;22.33;49.88
74678;BME280;67324;56.326;43.982;2023-05-27T10:14:08;100263.69;;;22.33;49.77
74678;BME280;67324;56.326;43.982;2023-05-27T10:16:36;100272.44;;;22.34;49.75
74678;BME280;67324;56.326;43.982;2023-05-27T10:19:01;100271.59;;;22.33;49.72
74678;BME280;67324;56.326;43.982;2023-05-27T10:21:28;100262.69;;;22.34;49.76
74678;BME280;67324;56.326;43.982;2023-05-27T10:23:57;100262.69;;;22.34;49.72
74678;BME280;67324;56.326;43.982;2023-05-27T10:29:11;100268.63;;;22.36;49.65
74678;BME280;67324;56.326;43.982;2023-05-27T10:31:47;100269.59;;;22.35;49.65
74678;BME280;67324;56.326;43.982;2023-05-27T10:34:13;100270.44;;;22.36;49.67
74678;BME280;67324;56.326;43.982;2023-05-27T10:36:40;100266.00;;;22.36;49.62
74678;BME280;67324;56.326;43.982;2023-05-27T10:39:15;100258.09;;;22.36;49.75
74678;BME280;67324;56.326;43.982;2023-05-27T10:41:41;100256.28;;;22.37;49.56
74678;BME280;67324;56.326;43.982;2023-05-27T10:44:07;100260.53;;;22.38;49.58
74678;BME280;67324;56.326;43.982;2023-05-27T10:46:43;100257.91;;;22.38;49.72
74678;BME280;67324;56.326;43.982;2023-05-27T10:49:32;100253.47;;;22.39;49.70
74678;BME280;67324;56.326;43.982;2023-05-27T10:52:18;100251.66;;;22.39;49.72
74678;BME280;67324;56.326;43.982;2023-05-27T10:54:48;100253.47;;;22.39;49.63
74678;BME280;67324;56.326;43.982;2023-05-27T10:57:17;100257.75;;;22.40;49.39
74678;BME280;67324;56.326;43.982;2023-05-27T10:59:49;100242.75;;;22.40;49.43
74678;BME280;67324;56.326;43.982;2023-05-27T11:02:16;100245.38;;;22.40;49.66
74678;BME280;67324;56.326;43.982;2023-05-27T11:04:42;100238.31;;;22.41;49.60
74678;BME280;67324;56.326;43.982;2023-05-27T11:07:07;100243.41;;;22.42;49.60
74678;BME280;67324;56.326;43.982;2023-05-27T11:09:49;100239.16;;;22.41;49.45
74678;BME280;67324;56.326;43.982;2023-05-27T11:12:15;100246.06;;;22.42;49.57
74678;BME280;67324;56.326;43.982;2023-05-27T11:14:45;100246.88;;;22.43;49.59
74678;BME280;67324;56.326;43.982;2023-05-27T11:17:11;100244.22;;;22.43;49.43
74678;BME280;67324;56.326;43.982;2023-05-27T11:19:38;100239.78;;;22.43;49.62
74678;BME280;67324;56.326;43.982;2023-05-27T11:22:03;100244.88;;;22.45;49.50
74678;BME280;67324;56.326;43.982;2023-05-27T11:24:29;100241.59;;;22.43;49.58
74678;BME280;67324;56.326;43.982;2023-05-27T11:26:55;100238.00;;;22.44;49.45
74678;BME280;67324;56.326;43.982;2023-05-27T11:29:21;100239.47;;;22.46;49.45
74678;BME280;67324;56.326;43.982;2023-05-27T11:31:46;100233.53;;;22.44;49.44
74678;BME280;67324;56.326;43.982;2023-05-27T11:34:13;100244.88;;;22.45;49.39
74678;BME280;67324;56.326;43.982;2023-05-27T11:36:39;100244.72;;;22.46;49.29
74678;BME280;67324;56.326;43.982;2023-05-27T11:39:05;100238.47;;;22.47;49.32
74678;BME280;67324;56.326;43.982;2023-05-27T11:41:32;100237.66;;;22.47;49.46
74678;BME280;67324;56.326;43.982;2023-05-27T11:44:04;100232.19;;;22.48;49.39
74678;BME280;67324;56.326;43.982;2023-05-27T11:46:37;100228.72;;;22.48;49.47
74678;BME280;67324;56.326;43.982;2023-05-27T11:49:03;100225.13;;;22.49;49.36
74678;BME280;67324;56.326;43.982;2023-05-27T11:51:29;100214.59;;;22.49;49.39
74678;BME280;67324;56.326;43.982;2023-05-27T11:53:55;100216.22;;;22.50;49.39
74678;BME280;67324;56.326;43.982;2023-05-27T11:56:21;100214.41;;;22.50;49.34
74678;BME280;67324;56.326;43.982;2023-05-27T11:58:47;100212.59;;;22.51;49.45
74678;BME280;67324;56.326;43.982;2023-05-27T12:01:12;100215.25;;;22.51;49.51
74678;BME280;67324;56.326;43.982;2023-05-27T12:03:38;100212.59;;;22.51;49.46
74678;BME280;67324;56.326;43.982;2023-05-27T12:06:04;100208.31;;;22.50;49.54
74678;BME280;67324;56.326;43.982;2023-05-27T12:08:48;100208.16;;;22.51;49.52
74678;BME280;67324;56.326;43.982;2023-05-27T12:11:13;100205.50;;;22.51;49.47
74678;BME280;67324;56.326;43.982;2023-05-27T12:13:39;100200.25;;;22.51;49.36
74678;BME280;67324;56.326;43.982;2023-05-27T12:16:05;100201.06;;;22.52;49.52
74678;BME280;67324;56.326;43.982;2023-05-27T12:18:30;100198.44;;;22.52;49.63
74678;BME280;67324;56.326;43.982;2023-05-27T12:20:56;100202.69;;;22.53;49.35
74678;BME280;67324;56.326;43.982;2023-05-27T12:23:22;100200.06;;;22.53;49.32
74678;BME280;67324;56.326;43.982;2023-05-27T12:25:48;100195.63;;;22.53;49.55
74678;BME280;67324;56.326;43.982;2023-05-27T12:28:13;100191.34;;;22.52;49.21
74678;BME280;67324;56.326;43.982;2023-05-27T12:30:39;100191.16;;;22.54;49.43
74678;BME280;67324;56.326;43.982;2023-05-27T12:33:05;100194.63;;;22.54;49.38
74678;BME280;67324;56.326;43.982;2023-05-27T12:35:31;100194.63;;;22.54;49.31
74678;BME280;67324;56.326;43.982;2023-05-27T12:37:57;100192.00;;;22.54;49.33
74678;BME280;67324;56.326;43.982;2023-05-27T12:40:24;100179.63;;;22.55;49.48
74678;BME280;67324;56.326;43.982;2023-05-27T12:42:50;100184.91;;;22.55;49.51
74678;BME280;67324;56.326;43.982;2023-05-27T12:45:16;100183.91;;;22.56;49.38
74678;BME280;67324;56.326;43.982;2023-05-27T12:47:41;100183.06;;;22.55;49.44
74678;BME280;67324;56.326;43.982;2023-05-27T12:50:07;100185.56;;;22.57;49.39
74678;BME280;67324;56.326;43.982;2023-05-27T12:52:33;100193.47;;;22.57;49.31